ジッダ の空港の天気 - METARとTAF

キング・アブドゥルアズィーズ国際空港(ジッダ) ( OEJN / JED ) - サウジアラビア ジッダ
飛行場実況気象(Metar)
観測時間11/27 11:00 AST (11/27 08:00 UTC)
風向・風速西北西 3m/s
視程10km以上
天気現象
なし
気温30℃
湿度55%
気圧1011hPa
METAROEJN 270800Z 30006KT CAVOK 30/20 Q1011 NOSIG
過去の天気等 Google飛行場航空写真 Wunderground天気予報

過去48時間のMETAR

飛行場予報(TAF)
発表時間: 11/27 08:00 AST (11/27 05:00 UTC)
予報対象時間: 27日9時 AST ~ 28日15時 AST
風向・風速北西 6m/s
視程10km以上
少しの雲 雲底高度 1220m
27日21時 AST ~ 27日23時 AST に徐々に
風向・風速北北東 3m/s
視程7000m
なし
28日9時 AST ~ 28日11時 AST に徐々に
風向・風速南 6m/s
TAF OEJN 270500Z 2706/2812 31012KT 9999 FEW040
BECMG 2718/2720 02006KT 7000 NSC
BECMG 2806/2808 19012KT